Terminal Aerodrome Forecast
Issued by NWS

Home | Current Version | Previous Version | Text Only | Print | Product List | Glossary Off
Versions: 1 2 3 4 5 6 7 8 9 10 11 12 13

266
FTUS43 KBIS 211130
TAFJMS
TAF
KJMS 211130Z 2112/2212 12007KT P6SM SCT070 BKN150
     FM212000 15009KT P6SM VCTS SCT060CB BKN200
     FM212300 19010KT P6SM VCTS FEW060CB SCT200
     FM220200 05011KT P6SM FEW060 SCT140
     FM220400 36008KT P6SM FEW070 FEW150=

USA.gov is the U.S. government's official web portal to all federal, state and local government web resources and services.